• Join FlightAware (Why Join?)
  • Login
  • US Flag 
01:06AM EDT


 

Airport Tracker/Info


-or-


 

Live Flight TrackerFlight Track Log ✈ N317FL ✈ 24-Apr-2013 ✈ KBOS - KIAD

Flight Track Log - Related Links

Times and Time Zones

All times are in EDT time to prevent confusion due to time zone crossing. See the N317FL flight status page for this flight to view local times or setup timezone preferences in your user account.

Time Position Orientation Groundspeed Altitude Reporting Facility
EDT Latitude Longitude Course Direction KTS MPH feet Rate Location/Type
03:27PM 42.2411 -71.6033 257° West  Level FlightAware Approximate
03:27PM 42.2980 -70.8520 257° West 216 249 19,300  Level FlightAware
03:27PM 42.2890 -70.9160 259° West 261 300 20,500 1,920 Climbing FlightAware
03:28PM 42.2870 -70.9710 267° West 270 311 21,900 2,100 Climbing FlightAware
03:29PM 42.2720 -71.0650 258° West 307 353 23,300 2,040 Climbing FlightAware
03:29PM 42.2610 -71.1360 258° West 312 359 24,800 2,460 Climbing FlightAware
03:30PM 42.2480 -71.2260 259° West 313 360 26,800 2,580 Climbing FlightAware
03:31PM 42.2350 -71.3140 259° West 314 361 28,700 2,460 Climbing FlightAware
03:32PM 42.2230 -71.3920 258° West 319 367 30,300 2,100 Climbing FlightAware
03:32PM 42.2110 -71.4720 259° West 331 381 31,500 1,860 Climbing FlightAware
03:33PM 42.1970 -71.5630 258° West 338 389 33,000 1,860 Climbing FlightAware
03:34PM 42.1840 -71.6460 258° West 343 395 34,200 1,860 Climbing FlightAware
03:34PM 42.1710 -71.7290 258° West 343 395 35,500 1,860 Climbing FlightAware
03:35PM 42.1570 -71.8220 259° West 339 390 36,900 1,500 Climbing FlightAware
03:36PM 42.1440 -71.9080 259° West 346 398 37,700 720 Climbing FlightAware
03:36PM 42.1290 -72.0010 258° West 355 409 38,000 180 Climbing FlightAware
03:37PM 42.1150 -72.0870 258° West 365 420 38,000  Level FlightAware
03:38PM 42.1000 -72.1850 258° West 360 414 38,000  Level FlightAware
03:38PM 42.0870 -72.2680 258° West 357 411 38,000  Level FlightAware
03:39PM 42.0740 -72.3480 258° West 356 410 38,000  Level FlightAware
03:40PM 42.0560 -72.4610 258° West 355 409 38,000  Level FlightAware
03:41PM 42.0420 -72.5480 258° West 356 410 38,000  Level FlightAware
03:41PM 42.0280 -72.6300 257° West 355 409 38,000  Level FlightAware
03:42PM 42.0120 -72.7260 257° West 352 405 38,000  Level FlightAware
03:43PM 42.0020 -72.7920 258° West 352 405 38,000  Level FlightAware
03:43PM 41.9730 -72.9020 251° West 353 406 38,000  Level FlightAware
03:44PM 41.9534 -72.9345 231° Southwest 356 410 38,000  Level FlightAware ADS-B
03:44PM 41.9120 -72.9960 228° Southwest 355 409 38,000  Level FlightAware
03:45PM 41.8804 -73.0413 227° Southwest 355 409 38,000  Level FlightAware ADS-B
03:45PM 41.8466 -73.0905 227° Southwest 353 406 38,000  Level FlightAware ADS-B
03:46PM 41.8063 -73.1489 227° Southwest 352 405 38,000  Level FlightAware ADS-B
03:46PM 41.7715 -73.1993 227° Southwest 352 405 38,000  Level FlightAware ADS-B
03:47PM 41.7383 -73.2473 227° Southwest 351 404 38,000  Level FlightAware ADS-B
03:48PM 41.6950 -73.3100 227° Southwest 351 404 38,000  Level FlightAware
03:48PM 41.6846 -73.3246 226° Southwest 352 405 38,000  Level FlightAware ADS-B
03:48PM 41.6481 -73.3772 227° Southwest 350 403 38,000  Level FlightAware ADS-B
03:49PM 41.6121 -73.4289 227° Southwest 350 403 38,000  Level FlightAware ADS-B
03:49PM 41.5771 -73.4791 227° Southwest 350 403 38,000  Level FlightAware ADS-B
03:50PM 41.5430 -73.5278 227° Southwest 350 403 38,000  Level FlightAware ADS-B
03:50PM 41.5074 -73.5788 227° Southwest 350 403 38,000  Level FlightAware ADS-B
03:51PM 41.4715 -73.6299 227° Southwest 350 403 38,000  Level FlightAware ADS-B
03:52PM 41.4283 -73.6913 227° Southwest 352 405 38,000  Level FlightAware ADS-B
03:52PM 41.3882 -73.7483 227° Southwest 352 405 38,000  Level FlightAware ADS-B
03:53PM 41.3541 -73.7968 227° Southwest 354 407 38,000  Level FlightAware ADS-B
03:53PM 41.3273 -73.8379 229° Southwest 352 405 38,000  Level FlightAware ADS-B
03:53PM 41.3264 -73.8397 236° Southwest 351 404 38,000  Level FlightAware ADS-B
03:54PM 41.2965 -73.8938 234° Southwest 352 405 38,000  Level FlightAware ADS-B
03:54PM 41.2955 -73.8955 232° Southwest 352 405 38,000  Level FlightAware ADS-B
03:54PM 41.2665 -73.9474 233° Southwest 352 405 38,000 -240 Level FlightAware ADS-B
03:55PM 41.2390 -73.9968 233° Southwest 352 405 37,800 -600 Descending FlightAware ADS-B
03:55PM 41.2252 -74.0214 233° Southwest 364 419 37,600 -900 Descending FlightAware ADS-B
03:55PM 41.1920 -74.0811 234° Southwest 365 420 37,100 -1,380 Descending FlightAware ADS-B
03:56PM 41.1617 -74.1353 233° Southwest 365 420 36,200 -1,920 Descending FlightAware ADS-B
03:56PM 41.1306 -74.1905 233° Southwest 354 407 35,200 -1,860 Descending FlightAware ADS-B
03:57PM 41.1011 -74.2430 233° Southwest 344 396 34,300 -1,860 Descending FlightAware ADS-B
03:58PM 41.0710 -74.2967 233° Southwest 332 382 33,300 -1,800 Descending FlightAware ADS-B
03:58PM 41.0392 -74.3532 233° Southwest 331 381 32,300 -1,800 Descending FlightAware ADS-B
03:59PM 41.0035 -74.4166 233° Southwest 357 411 31,200 -1,920 Descending FlightAware ADS-B
03:59PM 40.9601 -74.4934 233° Southwest 368 423 29,800 -1,920 Descending FlightAware ADS-B
04:00PM 40.9280 -74.5499 233° Southwest 366 421 28,800 -1,500 Descending FlightAware ADS-B
04:01PM 40.8928 -74.6300 240° Southwest 354 407 28,000 -660 Descending FlightAware ADS-B
04:01PM 40.8734 -74.6934 248° West 348 400 28,000  Level FlightAware ADS-B
04:02PM 40.8520 -74.7623 248° West 344 396 28,000 -480 Level FlightAware ADS-B
04:02PM 40.8332 -74.8231 248° West 350 403 27,500 -1,080 Descending FlightAware ADS-B
04:03PM 40.8146 -74.8831 248° West 351 404 26,900 -1,200 Descending FlightAware ADS-B
04:03PM 40.7950 -74.9464 248° West 351 404 26,300 -1,200 Descending FlightAware ADS-B
04:04PM 40.7761 -75.0073 248° West 351 404 25,700 -1,200 Descending FlightAware ADS-B
04:04PM 40.7572 -75.0681 248° West 350 403 25,100 -1,200 Descending FlightAware ADS-B
04:05PM 40.7388 -75.1270 248° West 347 399 24,500 -1,200 Descending FlightAware ADS-B
04:05PM 40.7205 -75.1855 248° West 342 394 23,900 -1,320 Descending FlightAware ADS-B
04:06PM 40.7025 -75.2432 248° West 337 388 23,200 -1,260 Descending FlightAware ADS-B
04:06PM 40.6839 -75.3024 248° West 333 383 22,600 -1,200 Descending FlightAware ADS-B
04:07PM 40.6663 -75.3583 247° West 329 379 22,000 -1,200 Descending FlightAware ADS-B
04:07PM 40.6563 -75.3873 246° West 325 374 21,700 -1,260 Descending FlightAware ADS-B
04:08PM 40.6356 -75.4344 240° Southwest 319 367 21,100 -1,200 Descending FlightAware ADS-B
04:08PM 40.6220 -75.4662 241° Southwest 314 361 20,800 -1,140 Descending FlightAware ADS-B
04:08PM 40.6155 -75.4789 236° Southwest 312 359 20,600 -1,080 Descending FlightAware ADS-B
04:09PM 40.5866 -75.5257 231° Southwest 304 350 20,100 -600 Descending FlightAware ADS-B
04:09PM 40.5615 -75.5676 232° Southwest 295 339 20,000 -120 Descending FlightAware ADS-B
04:10PM 40.5292 -75.6212 232° Southwest 293 337 20,000  Level FlightAware ADS-B
04:10PM 40.5038 -75.6633 232° Southwest 293 337 20,000  Level FlightAware ADS-B
04:11PM 40.4766 -75.7083 232° Southwest 293 337 20,000  Level FlightAware ADS-B
04:11PM 40.4508 -75.7507 231° Southwest 293 337 20,000  Level FlightAware ADS-B
04:12PM 40.4241 -75.7948 232° Southwest 295 339 20,000  Level FlightAware ADS-B
04:12PM 40.3945 -75.8434 231° Southwest 294 338 20,000  Level FlightAware ADS-B
04:13PM 40.3682 -75.8867 231° Southwest 292 336 20,000  Level FlightAware ADS-B
04:13PM 40.3419 -75.9297 231° Southwest 288 331 20,000  Level FlightAware ADS-B
04:14PM 40.3162 -75.9718 231° Southwest 287 330 20,000  Level FlightAware ADS-B
04:14PM 40.2904 -76.0142 231° Southwest 286 329 20,000  Level FlightAware ADS-B
04:15PM 40.2641 -76.0570 231° Southwest 285 328 20,000  Level FlightAware ADS-B
04:15PM 40.2389 -76.0980 231° Southwest 287 330 20,000  Level FlightAware ADS-B
04:16PM 40.2124 -76.1413 231° Southwest 285 328 20,000  Level FlightAware ADS-B
04:17PM 40.1875 -76.1818 231° Southwest 284 327 20,000 -240 Level FlightAware ADS-B
04:17PM 40.1615 -76.2240 231° Southwest 288 331 19,800 -780 Descending FlightAware ADS-B
04:18PM 40.1325 -76.2710 231° Southwest 297 342 19,200 -1,200 Descending FlightAware ADS-B
04:18PM 40.1219 -76.2883 231° Southwest 296 341 18,900 -1,260 Descending FlightAware ADS-B
04:18PM 40.0993 -76.3366 239° Southwest 290 334 18,300 -1,200 Descending FlightAware ADS-B
04:19PM 40.0761 -76.3868 239° Southwest 283 326 17,600 -1,200 Descending FlightAware ADS-B
04:20PM 40.0524 -76.4379 239° Southwest 275 316 16,900 -1,200 Descending FlightAware ADS-B
04:20PM 40.0298 -76.4869 239° Southwest 270 311 16,200 -1,260 Descending FlightAware ADS-B
04:21PM 40.0061 -76.5379 239° Southwest 261 300 15,400 -960 Descending FlightAware ADS-B
04:21PM 39.9863 -76.5806 239° Southwest 254 292 15,100 -300 Descending FlightAware ADS-B
04:22PM 39.9637 -76.6291 239° Southwest 259 298 15,100  Level FlightAware ADS-B
04:22PM 39.9428 -76.6741 239° Southwest 266 306 15,100  Level FlightAware ADS-B
04:23PM 39.9193 -76.7246 239° Southwest 264 304 15,100  Level FlightAware ADS-B
04:24PM 39.8947 -76.7774 239° Southwest 255 293 15,100  Level FlightAware ADS-B
04:24PM 39.8743 -76.8209 239° Southwest 248 285 15,100  Level FlightAware ADS-B
04:25PM 39.8600 -76.8520 239° Southwest 246 283 15,100  Level FlightAware
04:25PM 39.8550 -76.8622 237° Southwest 247 284 15,100  Level FlightAware ADS-B
04:25PM 39.8343 -76.9063 239° Southwest 246 283 15,100 -240 Level FlightAware ADS-B
04:26PM 39.8161 -76.9450 239° Southwest 247 284 14,900 -780 Descending FlightAware ADS-B
04:26PM 39.7958 -76.9882 239° Southwest 258 297 14,300 -1,200 Descending FlightAware ADS-B
04:27PM 39.7686 -77.0459 238° Southwest 258 297 13,400 -1,200 Descending FlightAware ADS-B
04:28PM 39.7360 -77.1150 238° Southwest 244 281 12,300 -1,200 Descending FlightAware
04:29PM 39.7070 -77.1760 238° Southwest 234 269 11,300 -1,140 Descending FlightAware
04:30PM 39.6860 -77.2220 239° Southwest 224 258 10,600 -900 Descending FlightAware
04:30PM 39.6610 -77.2740 238° Southwest 215 247 10,100 -360 Descending FlightAware
04:31PM 39.6390 -77.3170 236° Southwest 230 265 10,100  Level FlightAware
04:32PM 39.5990 -77.3540 215° Southwest 239 275 10,100  Level FlightAware
04:32PM 39.5620 -77.3880 215° Southwest 238 274 10,100 -300 Level FlightAware
04:33PM 39.5350 -77.4120 214° Southwest 234 269 9,800 -780 Descending FlightAware
04:33PM 39.5270 -77.4190 214° Southwest 234 269 9,600 -1,080 Descending FlightAware
04:34PM 39.4980 -77.4450 215° Southwest 234 269 9,100 -960 Descending FlightAware
04:34PM 39.4850 -77.4530 205° Southwest 243 280 8,900 -1,020 Descending FlightAware
04:34PM 39.4660 -77.4560 187° South 253 291 8,600 -1,200 Descending FlightAware
04:35PM 39.4200 -77.4520 176° South 257 296 7,800 -1,200 Descending FlightAware
04:35PM 39.4010 -77.4520 180° South 256 295 7,500 -1,080 Descending FlightAware
04:35PM 39.3750 -77.4530 182° South 253 291 7,100 -660 Descending FlightAware
04:36PM 39.3380 -77.4540 181° South 256 295 6,900 -600 Descending FlightAware
04:36PM 39.3140 -77.4540 180° South 259 298 6,600 -960 Descending FlightAware
04:37PM 39.2820 -77.4540 180° South 225 259 6,100 -960 Descending FlightAware
04:37PM 39.2600 -77.4550 182° South 210 242 5,800 -840 Descending FlightAware
04:38PM 39.2380 -77.4550 180° South 200 230 5,400 -840 Descending FlightAware
04:38PM 39.2160 -77.4560 182° South 194 223 5,100 -900 Descending FlightAware
04:38PM 39.2030 -77.4560 180° South 189 217 4,900 -960 Descending FlightAware
04:39PM 39.1800 -77.4560 180° South 186 214 4,400 -1,020 Descending FlightAware
04:39PM 39.1560 -77.4560 180° South 183 211 4,000 -1,020 Descending FlightAware
04:40PM 39.1330 -77.4570 182° South 175 201 3,500 -900 Descending FlightAware
04:40PM 39.1130 -77.4570 180° South 144 166 3,200 -780 Descending FlightAware
04:41PM 39.0930 -77.4570 180° South 155 178 2,800 -480 Descending FlightAware
04:41PM 39.0760 -77.4570 180° South 155 178 2,800 -600 Level FlightAware
04:42PM 39.0490 -77.4580 182° South 158 182 2,200 -1,260 Descending FlightAware
04:42PM 39.0167 -77.4500 182° South 135 155 1,200 -1,020 Descending Potomac TRACON
04:43PM 38.9833 -77.4667 201° Southwest 102 117 600 -600 Descending Potomac TRACON